sensor_id;sensor_type;location;lat;lon;timestamp;pressure;altitude;pressure_sealevel;temperature;humidity
18749;BME280;9503;53.560;10.246;2024-02-26T00:01:02;99700.75;;;10.10;70.78
18749;BME280;9503;53.560;10.246;2024-02-26T00:03:29;99701.28;;;10.00;71.18
18749;BME280;9503;53.560;10.246;2024-02-26T00:05:57;99706.81;;;9.86;71.10
18749;BME280;9503;53.560;10.246;2024-02-26T00:08:24;99703.50;;;9.90;70.78
18749;BME280;9503;53.560;10.246;2024-02-26T00:10:50;99711.25;;;9.92;70.62
18749;BME280;9503;53.560;10.246;2024-02-26T00:13:17;99708.28;;;9.80;70.01
18749;BME280;9503;53.560;10.246;2024-02-26T00:15:45;99705.72;;;9.80;70.16
18749;BME280;9503;53.560;10.246;2024-02-26T00:18:12;99710.03;;;9.57;70.37
18749;BME280;9503;53.560;10.246;2024-02-26T00:20:40;99710.34;;;9.42;69.58
18749;BME280;9503;53.560;10.246;2024-02-26T00:23:08;99711.69;;;9.32;70.38
18749;BME280;9503;53.560;10.246;2024-02-26T00:25:35;99706.25;;;9.23;69.68
18749;BME280;9503;53.560;10.246;2024-02-26T00:28:02;99701.63;;;9.13;70.04
18749;BME280;9503;53.560;10.246;2024-02-26T00:30:28;99702.44;;;9.12;70.20
18749;BME280;9503;53.560;10.246;2024-02-26T00:32:55;99699.94;;;9.13;70.82
18749;BME280;9503;53.560;10.246;2024-02-26T00:35:21;99696.47;;;9.11;70.96
18749;BME280;9503;53.560;10.246;2024-02-26T00:37:52;99698.81;;;9.07;71.05
18749;BME280;9503;53.560;10.246;2024-02-26T00:40:19;99709.69;;;9.01;71.47
18749;BME280;9503;53.560;10.246;2024-02-26T00:42:45;99703.56;;;8.96;71.36
18749;BME280;9503;53.560;10.246;2024-02-26T00:45:13;99710.22;;;8.93;71.68
18749;BME280;9503;53.560;10.246;2024-02-26T00:47:40;99709.63;;;9.00;70.69
18749;BME280;9503;53.560;10.246;2024-02-26T00:50:07;99710.78;;;9.08;70.46
18749;BME280;9503;53.560;10.246;2024-02-26T00:52:34;99701.88;;;8.97;71.31
18749;BME280;9503;53.560;10.246;2024-02-26T00:55:03;99709.16;;;8.88;71.24
18749;BME280;9503;53.560;10.246;2024-02-26T00:57:30;99706.41;;;8.81;71.24
18749;BME280;9503;53.560;10.246;2024-02-26T00:59:56;99710.16;;;8.69;71.45
18749;BME280;9503;53.560;10.246;2024-02-26T01:02:24;99710.44;;;8.76;71.77
18749;BME280;9503;53.560;10.246;2024-02-26T01:04:51;99706.41;;;8.81;72.09
18749;BME280;9503;53.560;10.246;2024-02-26T01:07:17;99716.28;;;8.74;71.37
18749;BME280;9503;53.560;10.246;2024-02-26T01:09:44;99709.53;;;8.74;71.94
18749;BME280;9503;53.560;10.246;2024-02-26T01:12:12;99707.53;;;8.67;71.84
18749;BME280;9503;53.560;10.246;2024-02-26T01:14:38;99706.44;;;8.61;72.29
18749;BME280;9503;53.560;10.246;2024-02-26T01:17:05;99705.78;;;8.66;71.50
18749;BME280;9503;53.560;10.246;2024-02-26T01:19:32;99709.16;;;8.65;71.42
18749;BME280;9503;53.560;10.246;2024-02-26T01:21:58;99712.66;;;8.67;72.50
18749;BME280;9503;53.560;10.246;2024-02-26T01:24:25;99707.53;;;8.67;72.64
18749;BME280;9503;53.560;10.246;2024-02-26T01:26:52;99712.75;;;8.70;71.33
18749;BME280;9503;53.560;10.246;2024-02-26T01:29:20;99719.97;;;8.80;70.44
18749;BME280;9503;53.560;10.246;2024-02-26T01:31:47;99715.94;;;8.65;70.66
18749;BME280;9503;53.560;10.246;2024-02-26T01:34:13;99717.38;;;8.58;69.47
18749;BME280;9503;53.560;10.246;2024-02-26T01:36:40;99716.03;;;8.45;69.78
18749;BME280;9503;53.560;10.246;2024-02-26T01:39:07;99714.59;;;8.31;70.20
18749;BME280;9503;53.560;10.246;2024-02-26T01:41:35;99722.72;;;8.22;70.01
18749;BME280;9503;53.560;10.246;2024-02-26T01:44:02;99719.50;;;8.26;71.40
18749;BME280;9503;53.560;10.246;2024-02-26T01:46:31;99719.28;;;8.22;71.41
18749;BME280;9503;53.560;10.246;2024-02-26T01:49:00;99716.81;;;8.23;71.00
18749;BME280;9503;53.560;10.246;2024-02-26T01:51:28;99718.19;;;8.15;71.77
18749;BME280;9503;53.560;10.246;2024-02-26T01:53:55;99716.91;;;8.06;72.31
18749;BME280;9503;53.560;10.246;2024-02-26T01:56:22;99719.41;;;8.04;72.17
18749;BME280;9503;53.560;10.246;2024-02-26T01:58:53;99722.72;;;8.22;72.07
18749;BME280;9503;53.560;10.246;2024-02-26T02:01:22;99724.78;;;8.10;72.12
18749;BME280;9503;53.560;10.246;2024-02-26T02:03:53;99723.97;;;8.11;72.26
18749;BME280;9503;53.560;10.246;2024-02-26T02:06:20;99729.69;;;8.26;71.99
18749;BME280;9503;53.560;10.246;2024-02-26T02:08:47;99725.59;;;8.09;71.49
18749;BME280;9503;53.560;10.246;2024-02-26T02:11:14;99728.16;;;8.09;72.31
18749;BME280;9503;53.560;10.246;2024-02-26T02:13:41;99719.69;;;8.10;71.82
18749;BME280;9503;53.560;10.246;2024-02-26T02:16:07;99714.44;;;8.07;71.44
18749;BME280;9503;53.560;10.246;2024-02-26T02:18:34;99726.19;;;8.03;72.24
18749;BME280;9503;53.560;10.246;2024-02-26T02:21:04;99716.25;;;8.10;71.68
18749;BME280;9503;53.560;10.246;2024-02-26T02:23:31;99712.84;;;8.09;71.35
18749;BME280;9503;53.560;10.246;2024-02-26T02:25:58;99719.13;;;8.17;71.29
18749;BME280;9503;53.560;10.246;2024-02-26T02:28:26;99716.50;;;8.16;70.99
18749;BME280;9503;53.560;10.246;2024-02-26T02:30:53;99721.72;;;7.98;71.80
18749;BME280;9503;53.560;10.246;2024-02-26T02:33:20;99724.69;;;7.88;72.56
18749;BME280;9503;53.560;10.246;2024-02-26T02:35:47;99732.19;;;8.04;71.71
18749;BME280;9503;53.560;10.246;2024-02-26T02:38:17;99726.47;;;8.10;71.56
18749;BME280;9503;53.560;10.246;2024-02-26T02:40:43;99728.97;;;8.08;70.63
18749;BME280;9503;53.560;10.246;2024-02-26T02:43:10;99726.25;;;8.05;70.99
18749;BME280;9503;53.560;10.246;2024-02-26T02:45:37;99723.38;;;7.97;70.61
18749;BME280;9503;53.560;10.246;2024-02-26T02:48:04;99726.06;;;7.80;71.40
18749;BME280;9503;53.560;10.246;2024-02-26T02:50:31;99727.13;;;7.65;70.71
18749;BME280;9503;53.560;10.246;2024-02-26T02:52:57;99732.81;;;7.40;72.67
18749;BME280;9503;53.560;10.246;2024-02-26T02:55:25;99732.84;;;7.60;73.10
18749;BME280;9503;53.560;10.246;2024-02-26T02:57:52;99736.47;;;7.65;73.53
18749;BME280;9503;53.560;10.246;2024-02-26T03:00:19;99733.44;;;7.73;72.35
18749;BME280;9503;53.560;10.246;2024-02-26T03:02:47;99741.91;;;7.72;72.05
18749;BME280;9503;53.560;10.246;2024-02-26T03:05:14;99730.50;;;7.64;71.95
18749;BME280;9503;53.560;10.246;2024-02-26T03:07:41;99729.16;;;7.72;71.72
18749;BME280;9503;53.560;10.246;2024-02-26T03:10:08;99723.03;;;7.69;71.09
18749;BME280;9503;53.560;10.246;2024-02-26T03:12:36;99733.66;;;7.59;71.32
18749;BME280;9503;53.560;10.246;2024-02-26T03:15:03;99732.09;;;7.62;71.44
18749;BME280;9503;53.560;10.246;2024-02-26T03:17:30;99735.44;;;7.61;72.44
18749;BME280;9503;53.560;10.246;2024-02-26T03:19:56;99732.94;;;7.63;72.96
18749;BME280;9503;53.560;10.246;2024-02-26T03:22:23;99729.00;;;7.69;72.03
18749;BME280;9503;53.560;10.246;2024-02-26T03:24:49;99732.75;;;7.78;71.54
18749;BME280;9503;53.560;10.246;2024-02-26T03:27:16;99735.44;;;7.61;71.15
18749;BME280;9503;53.560;10.246;2024-02-26T03:29:44;99734.38;;;7.75;71.46
18749;BME280;9503;53.560;10.246;2024-02-26T03:32:11;99738.81;;;7.80;70.60
18749;BME280;9503;53.560;10.246;2024-02-26T03:34:37;99738.72;;;7.78;70.78
18749;BME280;9503;53.560;10.246;2024-02-26T03:37:04;99748.34;;;7.64;70.60
18749;BME280;9503;53.560;10.246;2024-02-26T03:39:31;99750.56;;;7.57;70.83
18749;BME280;9503;53.560;10.246;2024-02-26T03:41:57;99748.72;;;7.54;71.11
18749;BME280;9503;53.560;10.246;2024-02-26T03:44:24;99761.22;;;7.48;70.96
18749;BME280;9503;53.560;10.246;2024-02-26T03:46:52;99755.06;;;7.43;70.82
18749;BME280;9503;53.560;10.246;2024-02-26T03:49:19;99753.22;;;7.40;70.82
18749;BME280;9503;53.560;10.246;2024-02-26T03:51:45;99752.22;;;7.37;71.36
18749;BME280;9503;53.560;10.246;2024-02-26T03:54:12;99756.38;;;7.35;71.16
18749;BME280;9503;53.560;10.246;2024-02-26T03:56:39;99767.97;;;7.28;70.80
18749;BME280;9503;53.560;10.246;2024-02-26T03:59:06;99773.44;;;7.36;70.96
18749;BME280;9503;53.560;10.246;2024-02-26T04:01:32;99774.00;;;7.30;70.83
18749;BME280;9503;53.560;10.246;2024-02-26T04:04:00;99785.09;;;7.31;71.19
18749;BME280;9503;53.560;10.246;2024-02-26T04:06:27;99785.38;;;7.37;70.92
18749;BME280;9503;53.560;10.246;2024-02-26T04:08:53;99785.88;;;7.30;70.96
18749;BME280;9503;53.560;10.246;2024-02-26T04:11:20;99794.41;;;7.30;71.16
18749;BME280;9503;53.560;10.246;2024-02-26T04:13:47;99801.88;;;7.45;71.04
18749;BME280;9503;53.560;10.246;2024-02-26T04:16:14;99804.44;;;7.45;71.52
18749;BME280;9503;53.560;10.246;2024-02-26T04:18:41;99809.47;;;7.43;71.48
18749;BME280;9503;53.560;10.246;2024-02-26T04:21:09;99808.66;;;7.44;71.60
18749;BME280;9503;53.560;10.246;2024-02-26T04:23:36;99805.84;;;7.38;70.54
18749;BME280;9503;53.560;10.246;2024-02-26T04:26:03;99813.88;;;7.28;70.83
18749;BME280;9503;53.560;10.246;2024-02-26T04:28:30;99818.44;;;7.35;71.12
18749;BME280;9503;53.560;10.246;2024-02-26T04:30:56;99823.56;;;7.55;70.75
18749;BME280;9503;53.560;10.246;2024-02-26T04:33:23;99833.72;;;7.53;70.27
18749;BME280;9503;53.560;10.246;2024-02-26T04:35:50;99841.28;;;7.52;69.77
18749;BME280;9503;53.560;10.246;2024-02-26T04:38:18;99843.78;;;7.50;69.79
18749;BME280;9503;53.560;10.246;2024-02-26T04:40:44;99850.75;;;7.54;69.91
18749;BME280;9503;53.560;10.246;2024-02-26T04:43:12;99859.72;;;7.46;69.59
18749;BME280;9503;53.560;10.246;2024-02-26T04:45:39;99857.41;;;7.33;69.68
18749;BME280;9503;53.560;10.246;2024-02-26T04:48:06;99864.25;;;7.34;69.18
18749;BME280;9503;53.560;10.246;2024-02-26T04:50:33;99867.25;;;7.25;69.05
18749;BME280;9503;53.560;10.246;2024-02-26T04:53:00;99864.53;;;7.04;68.85
18749;BME280;9503;53.560;10.246;2024-02-26T04:55:28;99857.28;;;6.94;68.67
18749;BME280;9503;53.560;10.246;2024-02-26T04:57:54;99859.75;;;6.92;69.84
18749;BME280;9503;53.560;10.246;2024-02-26T05:00:21;99864.13;;;6.95;69.79
18749;BME280;9503;53.560;10.246;2024-02-26T05:02:47;99868.28;;;6.93;70.15
18749;BME280;9503;53.560;10.246;2024-02-26T05:05:14;99876.72;;;6.92;70.25
18749;BME280;9503;53.560;10.246;2024-02-26T05:07:41;99870.81;;;6.93;70.40
18749;BME280;9503;53.560;10.246;2024-02-26T05:10:09;99878.91;;;7.02;70.37
18749;BME280;9503;53.560;10.246;2024-02-26T05:12:37;99877.53;;;7.09;70.32
18749;BME280;9503;53.560;10.246;2024-02-26T05:15:04;99872.50;;;7.10;71.41
18749;BME280;9503;53.560;10.246;2024-02-26T05:17:31;99875.09;;;7.12;71.18
18749;BME280;9503;53.560;10.246;2024-02-26T05:19:58;99875.47;;;7.19;70.93
18749;BME280;9503;53.560;10.246;2024-02-26T05:22:24;99875.25;;;7.51;70.40
18749;BME280;9503;53.560;10.246;2024-02-26T05:24:51;99872.19;;;7.58;69.73
18749;BME280;9503;53.560;10.246;2024-02-26T05:27:17;99871.22;;;7.56;69.76
18749;BME280;9503;53.560;10.246;2024-02-26T05:29:45;99876.47;;;7.59;69.48
18749;BME280;9503;53.560;10.246;2024-02-26T05:32:12;99881.41;;;7.56;69.67
18749;BME280;9503;53.560;10.246;2024-02-26T05:34:39;99883.81;;;7.70;70.79
18749;BME280;9503;53.560;10.246;2024-02-26T05:37:06;99882.16;;;7.90;70.64
18749;BME280;9503;53.560;10.246;2024-02-26T05:39:33;99886.66;;;7.96;69.84
18749;BME280;9503;53.560;10.246;2024-02-26T05:42:00;99891.63;;;7.93;70.33
18749;BME280;9503;53.560;10.246;2024-02-26T05:44:26;99893.31;;;7.92;70.06
18749;BME280;9503;53.560;10.246;2024-02-26T05:46:54;99890.69;;;7.91;69.20
18749;BME280;9503;53.560;10.246;2024-02-26T05:49:21;99899.22;;;7.91;70.62
18749;BME280;9503;53.560;10.246;2024-02-26T05:51:48;99904.13;;;7.87;69.95
18749;BME280;9503;53.560;10.246;2024-02-26T05:54:15;99896.91;;;7.78;69.79
18749;BME280;9503;53.560;10.246;2024-02-26T05:56:41;99909.75;;;7.80;69.95
18749;BME280;9503;53.560;10.246;2024-02-26T05:59:08;99908.16;;;7.82;70.04
18749;BME280;9503;53.560;10.246;2024-02-26T06:01:34;99905.19;;;7.72;70.01
18749;BME280;9503;53.560;10.246;2024-02-26T06:04:02;99906.28;;;7.60;71.15
18749;BME280;9503;53.560;10.246;2024-02-26T06:06:29;99912.19;;;7.59;71.09
18749;BME280;9503;53.560;10.246;2024-02-26T06:08:56;99917.28;;;7.59;71.55
18749;BME280;9503;53.560;10.246;2024-02-26T06:11:22;99914.69;;;7.57;71.12
18749;BME280;9503;53.560;10.246;2024-02-26T06:13:49;99920.78;;;7.61;71.25
18749;BME280;9503;53.560;10.246;2024-02-26T06:16:15;99926.09;;;7.65;71.66
18749;BME280;9503;53.560;10.246;2024-02-26T06:18:42;99926.47;;;7.73;71.55
18749;BME280;9503;53.560;10.246;2024-02-26T06:21:10;99918.56;;;7.86;71.06
18749;BME280;9503;53.560;10.246;2024-02-26T06:23:37;99931.63;;;7.74;71.47
18749;BME280;9503;53.560;10.246;2024-02-26T06:26:04;99934.53;;;7.82;71.96
18749;BME280;9503;53.560;10.246;2024-02-26T06:28:31;99928.97;;;7.91;71.78
18749;BME280;9503;53.560;10.246;2024-02-26T06:30:59;99934.28;;;7.95;71.75
18749;BME280;9503;53.560;10.246;2024-02-26T06:33:25;99931.59;;;7.92;71.53
18749;BME280;9503;53.560;10.246;2024-02-26T06:35:52;99932.28;;;8.08;71.66
18749;BME280;9503;53.560;10.246;2024-02-26T06:38:20;99932.72;;;8.17;71.55
18749;BME280;9503;53.560;10.246;2024-02-26T06:40:46;99930.53;;;8.07;71.75
18749;BME280;9503;53.560;10.246;2024-02-26T06:43:13;99934.06;;;8.09;71.27
18749;BME280;9503;53.560;10.246;2024-02-26T06:45:40;99941.38;;;8.20;72.09
18749;BME280;9503;53.560;10.246;2024-02-26T06:48:07;99939.84;;;8.24;71.96
18749;BME280;9503;53.560;10.246;2024-02-26T06:50:33;99938.81;;;8.20;72.44
18749;BME280;9503;53.560;10.246;2024-02-26T06:53:00;99942.19;;;8.19;72.35
18749;BME280;9503;53.560;10.246;2024-02-26T06:55:28;99940.03;;;8.28;72.39
18749;BME280;9503;53.560;10.246;2024-02-26T06:57:54;99946.81;;;8.46;72.38
18749;BME280;9503;53.560;10.246;2024-02-26T07:00:20;99949.59;;;8.52;72.13
18749;BME280;9503;53.560;10.246;2024-02-26T07:02:47;99952.31;;;8.55;73.05
18749;BME280;9503;53.560;10.246;2024-02-26T07:05:14;99959.16;;;8.56;73.11
18749;BME280;9503;53.560;10.246;2024-02-26T07:07:40;99963.19;;;8.70;73.42
18749;BME280;9503;53.560;10.246;2024-02-26T07:10:08;99960.34;;;8.83;71.98
18749;BME280;9503;53.560;10.246;2024-02-26T07:12:36;99963.16;;;8.90;72.25
18749;BME280;9503;53.560;10.246;2024-02-26T07:15:03;99966.72;;;8.93;71.76
18749;BME280;9503;53.560;10.246;2024-02-26T07:17:30;99965.84;;;8.93;72.11
18749;BME280;9503;53.560;10.246;2024-02-26T07:19:57;99967.31;;;8.88;71.92
18749;BME280;9503;53.560;10.246;2024-02-26T07:22:23;99966.28;;;8.82;72.85
18749;BME280;9503;53.560;10.246;2024-02-26T07:24:50;99970.66;;;9.06;72.93
18749;BME280;9503;53.560;10.246;2024-02-26T07:27:17;99967.66;;;9.16;72.87
18749;BME280;9503;53.560;10.246;2024-02-26T07:29:47;99969.25;;;9.12;73.96
18749;BME280;9503;53.560;10.246;2024-02-26T07:32:14;99978.47;;;9.30;73.88
18749;BME280;9503;53.560;10.246;2024-02-26T07:34:41;99985.88;;;9.24;74.34
18749;BME280;9503;53.560;10.246;2024-02-26T07:37:09;99982.25;;;9.39;73.58
18749;BME280;9503;53.560;10.246;2024-02-26T07:39:36;99988.91;;;9.34;73.47
18749;BME280;9503;53.560;10.246;2024-02-26T07:42:03;99993.19;;;9.56;72.95
18749;BME280;9503;53.560;10.246;2024-02-26T07:44:30;99992.50;;;9.60;74.21
18749;BME280;9503;53.560;10.246;2024-02-26T07:46:58;99992.13;;;9.72;73.36
18749;BME280;9503;53.560;10.246;2024-02-26T07:49:25;100007.22;;;9.66;73.61
18749;BME280;9503;53.560;10.246;2024-02-26T07:51:52;100013.56;;;9.76;74.39
18749;BME280;9503;53.560;10.246;2024-02-26T07:54:18;100013.25;;;9.89;74.31
18749;BME280;9503;53.560;10.246;2024-02-26T07:56:45;100013.38;;;9.92;74.07
18749;BME280;9503;53.560;10.246;2024-02-26T07:59:12;100013.84;;;10.04;74.55
18749;BME280;9503;53.560;10.246;2024-02-26T08:01:38;100013.78;;;10.03;75.00
18749;BME280;9503;53.560;10.246;2024-02-26T08:04:08;100019.09;;;9.85;74.89
18749;BME280;9503;53.560;10.246;2024-02-26T08:06:34;100025.66;;;9.78;74.92
18749;BME280;9503;53.560;10.246;2024-02-26T08:09:01;100024.38;;;9.68;74.70
18749;BME280;9503;53.560;10.246;2024-02-26T08:11:29;100035.94;;;9.80;75.18
18749;BME280;9503;53.560;10.246;2024-02-26T08:13:55;100030.53;;;10.38;75.10
18749;BME280;9503;53.560;10.246;2024-02-26T08:16:22;100034.50;;;9.86;75.08
18749;BME280;9503;53.560;10.246;2024-02-26T08:18:49;100036.31;;;10.32;74.95
18749;BME280;9503;53.560;10.246;2024-02-26T08:21:17;100044.75;;;10.09;74.85
18749;BME280;9503;53.560;10.246;2024-02-26T08:23:43;100037.06;;;10.30;75.49
18749;BME280;9503;53.560;10.246;2024-02-26T08:26:10;100039.44;;;10.47;74.33
18749;BME280;9503;53.560;10.246;2024-02-26T08:28:37;100046.13;;;10.66;74.60
18749;BME280;9503;53.560;10.246;2024-02-26T08:31:04;100042.78;;;10.69;74.61
18749;BME280;9503;53.560;10.246;2024-02-26T08:33:30;100049.50;;;10.89;74.73
18749;BME280;9503;53.560;10.246;2024-02-26T08:35:59;100042.44;;;11.07;73.85
18749;BME280;9503;53.560;10.246;2024-02-26T08:38:27;100044.47;;;10.44;74.42
18749;BME280;9503;53.560;10.246;2024-02-26T08:40:53;100048.97;;;10.74;74.43
18749;BME280;9503;53.560;10.246;2024-02-26T08:43:20;100048.66;;;10.89;74.11
18749;BME280;9503;53.560;10.246;2024-02-26T08:45:46;100047.03;;;11.16;74.03
18749;BME280;9503;53.560;10.246;2024-02-26T08:48:13;100053.09;;;10.70;73.90
18749;BME280;9503;53.560;10.246;2024-02-26T08:50:41;100061.06;;;11.26;73.64
18749;BME280;9503;53.560;10.246;2024-02-26T08:53:07;100056.97;;;11.07;74.20
18749;BME280;9503;53.560;10.246;2024-02-26T08:55:35;100061.41;;;11.11;73.54
18749;BME280;9503;53.560;10.246;2024-02-26T08:58:02;100070.84;;;10.88;74.59
18749;BME280;9503;53.560;10.246;2024-02-26T09:00:28;100069.75;;;10.82;75.51
18749;BME280;9503;53.560;10.246;2024-02-26T09:02:56;100069.91;;;10.86;76.25
18749;BME280;9503;53.560;10.246;2024-02-26T09:05:22;100073.66;;;10.94;75.89
18749;BME280;9503;53.560;10.246;2024-02-26T09:07:49;100072.91;;;11.22;75.63
18749;BME280;9503;53.560;10.246;2024-02-26T09:10:17;100079.91;;;11.02;75.79
18749;BME280;9503;53.560;10.246;2024-02-26T09:12:45;100079.88;;;11.76;74.92
18749;BME280;9503;53.560;10.246;2024-02-26T09:15:12;100081.28;;;11.17;74.95
18749;BME280;9503;53.560;10.246;2024-02-26T09:17:38;100080.78;;;11.78;74.00
18749;BME280;9503;53.560;10.246;2024-02-26T09:20:06;100085.63;;;12.21;74.00
18749;BME280;9503;53.560;10.246;2024-02-26T09:22:34;100081.16;;;11.88;73.51
18749;BME280;9503;53.560;10.246;2024-02-26T09:25:03;100081.97;;;11.87;73.84
18749;BME280;9503;53.560;10.246;2024-02-26T09:27:30;100075.94;;;11.36;74.81
18749;BME280;9503;53.560;10.246;2024-02-26T09:29:58;100090.03;;;11.98;76.13
18749;BME280;9503;53.560;10.246;2024-02-26T09:32:25;100090.28;;;12.06;73.03
18749;BME280;9503;53.560;10.246;2024-02-26T09:34:51;100091.00;;;11.76;75.79
18749;BME280;9503;53.560;10.246;2024-02-26T09:37:18;100098.47;;;11.94;75.09
18749;BME280;9503;53.560;10.246;2024-02-26T09:39:44;100100.41;;;12.01;74.88
18749;BME280;9503;53.560;10.246;2024-02-26T09:42:12;100099.97;;;12.14;74.04
18749;BME280;9503;53.560;10.246;2024-02-26T09:44:40;100095.31;;;12.03;73.97
18749;BME280;9503;53.560;10.246;2024-02-26T09:47:10;100097.44;;;11.89;74.18
18749;BME280;9503;53.560;10.246;2024-02-26T09:49:38;100110.81;;;12.33;74.16
18749;BME280;9503;53.560;10.246;2024-02-26T09:52:06;100098.72;;;12.29;74.29
18749;BME280;9503;53.560;10.246;2024-02-26T09:54:35;100102.81;;;12.24;74.77
18749;BME280;9503;53.560;10.246;2024-02-26T09:57:02;100103.41;;;12.42;74.14
18749;BME280;9503;53.560;10.246;2024-02-26T09:59:35;100106.66;;;12.65;72.83
18749;BME280;9503;53.560;10.246;2024-02-26T10:02:06;100114.09;;;12.56;74.24
18749;BME280;9503;53.560;10.246;2024-02-26T10:04:36;100105.66;;;12.60;73.54
18749;BME280;9503;53.560;10.246;2024-02-26T10:07:03;100119.59;;;12.68;72.50
18749;BME280;9503;53.560;10.246;2024-02-26T10:09:31;100118.97;;;12.75;72.75
18749;BME280;9503;53.560;10.246;2024-02-26T10:11:58;100120.34;;;13.22;72.37
18749;BME280;9503;53.560;10.246;2024-02-26T10:14:25;100116.25;;;12.70;73.37
18749;BME280;9503;53.560;10.246;2024-02-26T10:16:52;100117.13;;;12.71;73.28
18749;BME280;9503;53.560;10.246;2024-02-26T10:19:26;100115.16;;;12.34;75.40
18749;BME280;9503;53.560;10.246;2024-02-26T10:21:56;100121.06;;;12.60;73.89
18749;BME280;9503;53.560;10.246;2024-02-26T10:24:24;100120.19;;;12.31;74.82
18749;BME280;9503;53.560;10.246;2024-02-26T10:26:51;100125.34;;;12.88;73.44
18749;BME280;9503;53.560;10.246;2024-02-26T10:29:18;100120.19;;;12.88;72.68
18749;BME280;9503;53.560;10.246;2024-02-26T10:31:45;100125.59;;;12.40;74.59
18749;BME280;9503;53.560;10.246;2024-02-26T10:34:12;100128.81;;;12.90;74.20
18749;BME280;9503;53.560;10.246;2024-02-26T10:36:39;100127.22;;;12.93;73.05
18749;BME280;9503;53.560;10.246;2024-02-26T10:39:07;100139.19;;;13.21;73.24
18749;BME280;9503;53.560;10.246;2024-02-26T10:41:34;100139.06;;;13.18;73.28
18749;BME280;9503;53.560;10.246;2024-02-26T10:44:01;100140.09;;;12.93;72.22
18749;BME280;9503;53.560;10.246;2024-02-26T10:46:28;100147.03;;;13.26;72.68
18749;BME280;9503;53.560;10.246;2024-02-26T10:48:54;100142.38;;;13.14;72.88
18749;BME280;9503;53.560;10.246;2024-02-26T10:51:28;100145.66;;;13.70;72.34
18749;BME280;9503;53.560;10.246;2024-02-26T10:53:56;100152.25;;;13.59;71.57
18749;BME280;9503;53.560;10.246;2024-02-26T10:56:26;100154.28;;;12.52;72.41
18749;BME280;9503;53.560;10.246;2024-02-26T10:58:54;100153.91;;;12.97;71.41
18749;BME280;9503;53.560;10.246;2024-02-26T11:01:22;100151.16;;;13.51;70.57
18749;BME280;9503;53.560;10.246;2024-02-26T11:03:51;100161.81;;;13.33;69.38
18749;BME280;9503;53.560;10.246;2024-02-26T11:06:19;100155.75;;;13.01;70.27
18749;BME280;9503;53.560;10.246;2024-02-26T11:08:48;100153.19;;;13.01;69.64
18749;BME280;9503;53.560;10.246;2024-02-26T11:11:15;100159.88;;;12.67;70.46
18749;BME280;9503;53.560;10.246;2024-02-26T11:13:46;100160.28;;;13.10;70.57
18749;BME280;9503;53.560;10.246;2024-02-26T11:16:15;100150.69;;;13.04;69.70
18749;BME280;9503;53.560;10.246;2024-02-26T11:18:42;100160.31;;;13.40;69.64
18749;BME280;9503;53.560;10.246;2024-02-26T11:21:11;100155.34;;;13.47;68.93
18749;BME280;9503;53.560;10.246;2024-02-26T11:23:38;100159.03;;;13.25;68.74
18749;BME280;9503;53.560;10.246;2024-02-26T11:26:06;100151.72;;;13.72;68.33
18749;BME280;9503;53.560;10.246;2024-02-26T11:28:34;100155.00;;;14.00;68.08
18749;BME280;9503;53.560;10.246;2024-02-26T11:31:03;100161.53;;;13.22;69.67
18749;BME280;9503;53.560;10.246;2024-02-26T11:33:31;100158.59;;;12.82;70.00
18749;BME280;9503;53.560;10.246;2024-02-26T11:35:58;100157.09;;;12.88;71.34
18749;BME280;9503;53.560;10.246;2024-02-26T11:38:26;100160.97;;;13.33;68.94
18749;BME280;9503;53.560;10.246;2024-02-26T11:40:53;100165.47;;;13.73;68.87
18749;BME280;9503;53.560;10.246;2024-02-26T11:43:23;100170.97;;;13.87;68.19
18749;BME280;9503;53.560;10.246;2024-02-26T11:45:50;100167.25;;;14.45;66.84
18749;BME280;9503;53.560;10.246;2024-02-26T11:48:24;100171.53;;;14.08;66.56
18749;BME280;9503;53.560;10.246;2024-02-26T11:50:52;100174.63;;;13.02;69.40
18749;BME280;9503;53.560;10.246;2024-02-26T11:53:26;100180.78;;;14.00;67.14
18749;BME280;9503;53.560;10.246;2024-02-26T11:56:23;100179.19;;;13.72;67.24
18749;BME280;9503;53.560;10.246;2024-02-26T11:58:59;100185.22;;;14.05;66.70
18749;BME280;9503;53.560;10.246;2024-02-26T12:01:43;100187.00;;;13.43;67.58
18749;BME280;9503;53.560;10.246;2024-02-26T12:04:16;100184.28;;;13.69;66.71
18749;BME280;9503;53.560;10.246;2024-02-26T12:06:54;100189.28;;;13.64;67.00
18749;BME280;9503;53.560;10.246;2024-02-26T12:09:34;100189.88;;;12.95;67.59
18749;BME280;9503;53.560;10.246;2024-02-26T12:12:02;100191.13;;;14.01;67.26
18749;BME280;9503;53.560;10.246;2024-02-26T12:14:29;100191.38;;;13.77;68.16
18749;BME280;9503;53.560;10.246;2024-02-26T12:16:56;100197.72;;;13.90;68.61
18749;BME280;9503;53.560;10.246;2024-02-26T12:19:25;100204.50;;;13.55;69.14
18749;BME280;9503;53.560;10.246;2024-02-26T12:21:52;100206.00;;;13.47;68.77
18749;BME280;9503;53.560;10.246;2024-02-26T12:24:20;100196.84;;;13.58;68.49
18749;BME280;9503;53.560;10.246;2024-02-26T12:26:47;100202.81;;;13.25;69.40
18749;BME280;9503;53.560;10.246;2024-02-26T12:29:13;100212.09;;;13.50;68.78
18749;BME280;9503;53.560;10.246;2024-02-26T12:31:41;100208.16;;;13.05;69.21
18749;BME280;9503;53.560;10.246;2024-02-26T12:34:08;100214.44;;;12.57;71.31
18749;BME280;9503;53.560;10.246;2024-02-26T12:36:37;100223.16;;;12.10;72.65
18749;BME280;9503;53.560;10.246;2024-02-26T12:39:05;100213.09;;;12.70;71.86
18749;BME280;9503;53.560;10.246;2024-02-26T12:41:32;100224.25;;;13.24;69.63
18749;BME280;9503;53.560;10.246;2024-02-26T12:43:59;100224.53;;;13.35;68.59
18749;BME280;9503;53.560;10.246;2024-02-26T12:46:26;100227.72;;;13.26;69.77
18749;BME280;9503;53.560;10.246;2024-02-26T12:48:55;100231.72;;;13.45;69.66
18749;BME280;9503;53.560;10.246;2024-02-26T12:51:23;100232.09;;;12.47;69.91
18749;BME280;9503;53.560;10.246;2024-02-26T12:53:52;100229.53;;;12.73;70.00
18749;BME280;9503;53.560;10.246;2024-02-26T12:56:19;100233.44;;;13.18;69.10
18749;BME280;9503;53.560;10.246;2024-02-26T12:58:47;100238.75;;;12.67;69.17
18749;BME280;9503;53.560;10.246;2024-02-26T13:01:16;100248.91;;;12.37;70.60
18749;BME280;9503;53.560;10.246;2024-02-26T13:03:44;100248.25;;;12.69;69.60